createdAt,value
2018-06-12T00:00:06.160Z,7.13
2018-06-12T00:02:37.115Z,7.57
2018-06-12T00:05:07.836Z,7.40
2018-06-12T00:07:38.791Z,7.93
2018-06-12T00:10:09.527Z,7.90
2018-06-12T00:12:39.754Z,7.90
2018-06-12T00:15:10.547Z,8.27
2018-06-12T00:17:41.314Z,8.23
2018-06-12T00:20:12.239Z,9.50
2018-06-12T00:22:43.590Z,8.00
2018-06-12T00:25:14.232Z,8.33
2018-06-12T00:27:45.022Z,7.90
2018-06-12T00:30:15.631Z,8.57
2018-06-12T00:32:46.600Z,9.17
2018-06-12T00:35:17.151Z,8.90
2018-06-12T00:37:47.951Z,9.03
2018-06-12T00:40:18.627Z,9.57
2018-06-12T00:42:49.280Z,9.10
2018-06-12T00:45:19.793Z,9.33
2018-06-12T00:47:50.861Z,9.40
2018-06-12T00:50:22.779Z,9.07
2018-06-12T00:52:53.527Z,8.87
2018-06-12T00:55:24.149Z,9.07
2018-06-12T00:57:54.528Z,9.87
2018-06-12T01:00:25.838Z,9.40
2018-06-12T01:02:58.080Z,9.27
2018-06-12T01:05:29.646Z,9.10
2018-06-12T01:08:00.578Z,9.03
2018-06-12T01:10:31.486Z,9.90
2018-06-12T01:13:02.255Z,10.97
2018-06-12T01:15:33.300Z,11.67
2018-06-12T01:18:04.339Z,11.97
2018-06-12T01:20:35.595Z,12.47
2018-06-12T01:23:06.539Z,14.60
2018-06-12T01:25:37.376Z,16.27
2018-06-12T01:28:08.857Z,16.23
2018-06-12T01:30:39.953Z,15.70
2018-06-12T01:33:10.561Z,18.23
2018-06-12T01:35:41.323Z,19.27
2018-06-12T01:38:12.420Z,21.20
2018-06-12T01:40:43.977Z,19.93
2018-06-12T01:43:14.768Z,19.50
2018-06-12T01:45:45.016Z,19.23
2018-06-12T01:48:15.897Z,17.77
2018-06-12T01:50:48.103Z,19.57
2018-06-12T01:53:19.537Z,19.20
2018-06-12T01:55:50.384Z,18.77
2018-06-12T01:58:21.653Z,19.17
2018-06-12T02:00:52.496Z,18.03
2018-06-12T02:03:23.239Z,17.87
2018-06-12T02:05:54.539Z,17.83
2018-06-12T02:08:25.718Z,16.57
2018-06-12T02:10:56.628Z,18.77
2018-06-12T02:13:27.211Z,19.33
2018-06-12T02:15:58.030Z,16.60
2018-06-12T02:18:28.271Z,17.83
2018-06-12T02:20:59.976Z,19.73
2018-06-12T02:23:30.647Z,19.83
2018-06-12T02:26:01.329Z,19.50
2018-06-12T02:28:31.939Z,20.00
2018-06-12T02:31:03.025Z,20.13
2018-06-12T02:33:33.805Z,17.53
2018-06-12T02:36:03.945Z,19.17
2018-06-12T02:38:35.785Z,19.33
2018-06-12T02:41:06.585Z,20.13
2018-06-12T02:43:37.528Z,19.57
2018-06-12T02:46:08.310Z,17.70
2018-06-12T02:48:39.469Z,19.57
2018-06-12T02:51:09.949Z,23.60
2018-06-12T02:53:41.021Z,19.40
2018-06-12T02:56:12.349Z,18.87
2018-06-12T02:58:43.215Z,18.07
2018-06-12T03:01:14.294Z,16.90
2018-06-12T03:03:44.856Z,14.93
2018-06-12T03:06:15.703Z,14.70
2018-06-12T03:08:46.863Z,14.57
2018-06-12T03:11:17.826Z,16.50
2018-06-12T03:13:48.604Z,16.90
2018-06-12T03:16:19.537Z,15.30
2018-06-12T03:18:49.929Z,14.07
2018-06-12T03:21:20.457Z,14.90
2018-06-12T03:23:52.032Z,16.90
2018-06-12T03:26:23.114Z,46.73
2018-06-12T03:28:53.921Z,33.40
2018-06-12T03:31:24.749Z,21.00
2018-06-12T03:33:55.481Z,16.07
2018-06-12T03:36:26.003Z,16.57
2018-06-12T03:38:56.809Z,21.93
2018-06-12T03:41:27.468Z,24.13
2018-06-12T03:43:57.665Z,18.30
2018-06-12T03:46:28.434Z,17.50
2018-06-12T03:48:59.385Z,18.33
2018-06-12T03:51:30.090Z,18.37
2018-06-12T03:54:00.825Z,17.20
2018-06-12T03:56:30.846Z,17.33
2018-06-12T03:59:02.588Z,16.80
2018-06-12T04:01:34.540Z,17.33
2018-06-12T04:04:04.558Z,19.40
2018-06-12T04:06:38.235Z,22.20
2018-06-12T04:09:10.448Z,19.67
2018-06-12T04:11:41.325Z,20.07
2018-06-12T04:14:12.260Z,17.97
2018-06-12T04:16:43.363Z,19.10
2018-06-12T04:19:14.167Z,19.47
2018-06-12T04:21:44.706Z,19.80
2018-06-12T04:24:15.388Z,18.47
2018-06-12T04:26:46.248Z,20.13
2018-06-12T04:29:16.822Z,18.40
2018-06-12T04:31:47.494Z,21.90
2018-06-12T04:34:18.131Z,19.30
2018-06-12T04:36:49.117Z,18.50
2018-06-12T04:39:19.705Z,17.40
2018-06-12T04:41:50.371Z,18.50
2018-06-12T04:44:20.885Z,18.33
2018-06-12T04:46:52.106Z,17.67
2018-06-12T04:49:22.706Z,19.37
2018-06-12T04:51:52.968Z,19.10
2018-06-12T04:54:23.790Z,18.97
2018-06-12T04:56:54.353Z,20.93
2018-06-12T04:59:25.181Z,22.00
2018-06-12T05:01:59.620Z,20.27
2018-06-12T05:04:30.140Z,22.67
2018-06-12T05:07:00.792Z,21.87
2018-06-12T05:09:31.557Z,22.60
2018-06-12T05:12:02.371Z,23.07
2018-06-12T05:14:33.427Z,24.67
2018-06-12T05:17:04.664Z,24.47
2018-06-12T05:19:35.840Z,26.40
2018-06-12T05:22:06.880Z,26.83
2018-06-12T05:24:37.629Z,23.83
2018-06-12T05:27:08.330Z,23.57
2018-06-12T05:29:39.166Z,20.17
2018-06-12T05:32:10.056Z,19.03
2018-06-12T05:34:41.033Z,20.27
2018-06-12T05:37:12.210Z,18.30
2018-06-12T05:39:43.207Z,21.97
2018-06-12T05:42:14.008Z,24.97
2018-06-12T05:44:45.067Z,25.73
2018-06-12T05:47:15.852Z,28.33
2018-06-12T05:49:46.876Z,27.87
2018-06-12T05:52:18.594Z,22.63
2018-06-12T05:54:49.180Z,18.43
2018-06-12T05:57:20.496Z,15.87
2018-06-12T05:59:51.409Z,14.67
2018-06-12T06:02:22.546Z,23.40
2018-06-12T06:04:54.231Z,10.80
2018-06-12T06:07:25.355Z,12.23
2018-06-12T06:09:56.645Z,12.47
2018-06-12T06:12:27.034Z,12.30
2018-06-12T06:14:57.480Z,13.20
2018-06-12T06:17:28.755Z,13.43
2018-06-12T06:19:59.832Z,13.07
2018-06-12T06:22:30.876Z,12.83
2018-06-12T06:25:02.108Z,12.17
2018-06-12T06:27:32.944Z,12.07
2018-06-12T06:30:03.771Z,12.13
2018-06-12T06:32:34.661Z,11.27
2018-06-12T06:35:05.710Z,12.07
2018-06-12T06:37:37.096Z,10.10
2018-06-12T06:40:07.827Z,10.40
2018-06-12T06:42:38.306Z,10.30
2018-06-12T06:45:09.176Z,9.50
2018-06-12T06:47:40.104Z,10.20
2018-06-12T06:50:11.014Z,9.63
2018-06-12T06:52:44.923Z,8.23
2018-06-12T06:55:15.185Z,7.70
2018-06-12T06:57:47.288Z,9.07
2018-06-12T07:00:18.515Z,8.70
2018-06-12T07:02:49.902Z,8.33
2018-06-12T07:05:20.919Z,8.37
2018-06-12T07:07:55.875Z,8.47
2018-06-12T07:10:27.122Z,8.73
2018-06-12T07:12:57.673Z,7.63
2018-06-12T07:15:28.345Z,8.20
2018-06-12T07:17:59.369Z,7.47
2018-06-12T07:21:34.102Z,8.33
2018-06-12T07:24:05.060Z,7.33
2018-06-12T07:26:35.911Z,6.40
2018-06-12T07:29:06.652Z,6.30
2018-06-12T07:31:37.548Z,6.37
2018-06-12T07:34:08.667Z,7.00
2018-06-12T07:36:39.742Z,6.30
2018-06-12T07:39:10.135Z,6.53
2018-06-12T07:41:40.762Z,6.57
2018-06-12T07:44:11.456Z,5.93
2018-06-12T07:46:41.907Z,5.83
2018-06-12T07:49:13.332Z,6.27
2018-06-12T07:51:43.820Z,5.70
2018-06-12T07:54:14.378Z,6.70
2018-06-12T07:56:45.468Z,5.60
2018-06-12T07:59:16.337Z,5.97
2018-06-12T08:01:47.357Z,5.83
2018-06-12T08:04:18.894Z,5.60
2018-06-12T08:06:50.037Z,5.30
2018-06-12T08:09:20.576Z,5.00
2018-06-12T08:11:51.952Z,5.30
2018-06-12T08:14:22.522Z,5.80
2018-06-12T08:16:53.420Z,5.53
2018-06-12T08:19:24.120Z,5.20
2018-06-12T08:21:54.323Z,4.80
2018-06-12T08:24:24.865Z,5.33
2018-06-12T08:26:55.727Z,5.80
2018-06-12T08:29:26.639Z,5.53
2018-06-12T08:31:57.192Z,5.70
2018-06-12T08:34:27.349Z,5.53
2018-06-12T08:36:57.814Z,5.13
2018-06-12T08:39:28.763Z,5.20
2018-06-12T08:41:59.831Z,5.40
2018-06-12T08:44:30.936Z,4.77
2018-06-12T08:47:03.058Z,5.43
2018-06-12T08:49:33.865Z,5.23
2018-06-12T08:52:04.799Z,5.37
2018-06-12T08:54:35.519Z,5.07
2018-06-12T08:57:06.593Z,5.07
2018-06-12T08:59:37.788Z,5.20
2018-06-12T09:02:08.398Z,5.10
2018-06-12T09:04:39.178Z,5.57
2018-06-12T09:07:10.311Z,4.90
2018-06-12T09:09:41.618Z,5.08
2018-06-12T09:12:12.581Z,4.73
2018-06-12T09:14:43.306Z,6.55
2018-06-12T09:17:14.096Z,4.60
2018-06-12T09:19:45.284Z,4.78
2018-06-12T09:22:16.181Z,4.72
2018-06-12T09:24:47.364Z,4.83
2018-06-12T09:27:18.168Z,4.93
2018-06-12T09:29:49.895Z,4.92
2018-06-12T09:32:21.634Z,5.23
2018-06-12T09:34:52.341Z,5.40
2018-06-12T09:37:23.226Z,5.20
2018-06-12T09:39:53.775Z,5.90
2018-06-12T09:42:25.054Z,4.95
2018-06-12T09:44:56.208Z,13.38
2018-06-12T09:47:26.821Z,4.40
2018-06-12T09:49:58.348Z,4.20
2018-06-12T09:52:29.099Z,4.37
2018-06-12T09:54:59.876Z,4.70
2018-06-12T09:57:30.468Z,4.62
2018-06-12T10:00:01.481Z,4.70
2018-06-12T10:02:32.343Z,4.28
2018-06-12T10:05:03.003Z,5.58
2018-06-12T10:07:33.774Z,4.62
2018-06-12T10:10:04.738Z,4.67
2018-06-12T10:12:34.801Z,5.72
2018-06-12T10:15:06.033Z,5.37
2018-06-12T10:17:36.996Z,4.30
2018-06-12T10:20:07.540Z,3.87
2018-06-12T10:22:38.666Z,3.75
2018-06-12T10:25:09.499Z,3.83
2018-06-12T10:27:40.427Z,4.30
2018-06-12T10:30:11.382Z,3.55
2018-06-12T10:32:42.563Z,3.85
2018-06-12T10:35:14.008Z,4.90
2018-06-12T10:37:45.098Z,4.08
2018-06-12T10:40:16.115Z,3.60
2018-06-12T10:42:46.824Z,3.20
2018-06-12T10:45:17.547Z,3.92
2018-06-12T10:47:49.043Z,3.70
2018-06-12T10:50:20.600Z,3.60
2018-06-12T10:52:51.236Z,4.00
2018-06-12T10:55:22.133Z,4.17
2018-06-12T10:57:52.913Z,4.20
2018-06-12T11:00:23.811Z,4.00
2018-06-12T11:02:54.676Z,4.37
2018-06-12T11:05:25.362Z,4.12
2018-06-12T11:07:56.161Z,4.00
2018-06-12T11:10:27.134Z,4.30
2018-06-12T11:12:57.941Z,4.65
2018-06-12T11:15:29.415Z,4.35
2018-06-12T11:18:01.163Z,4.42
2018-06-12T11:20:32.081Z,5.55
2018-06-12T11:23:03.226Z,4.67
2018-06-12T11:25:33.735Z,4.72
2018-06-12T11:28:03.931Z,4.72
2018-06-12T11:30:35.050Z,4.92
2018-06-12T11:33:06.453Z,4.97
2018-06-12T11:35:37.457Z,4.87
2018-06-12T11:38:07.920Z,4.65
2018-06-12T11:40:38.671Z,4.60
2018-06-12T11:43:09.191Z,4.87
2018-06-12T11:45:39.853Z,5.10
2018-06-12T11:48:10.919Z,5.25
2018-06-12T11:50:41.951Z,5.30
2018-06-12T11:53:12.697Z,4.92
2018-06-12T11:55:43.891Z,6.72
2018-06-12T11:58:14.739Z,4.95
2018-06-12T12:00:45.612Z,5.53
2018-06-12T12:03:17.284Z,5.03
2018-06-12T12:05:48.361Z,5.58
2018-06-12T12:08:19.455Z,5.50
2018-06-12T12:10:50.815Z,5.00
2018-06-12T12:13:21.062Z,5.00
2018-06-12T12:15:51.079Z,5.70
2018-06-12T12:18:22.666Z,5.35
2018-06-12T12:20:54.615Z,5.37
2018-06-12T12:23:26.734Z,5.30
2018-06-12T12:25:57.903Z,5.58
2018-06-12T12:28:29.499Z,5.37
2018-06-12T12:31:01.019Z,5.20
2018-06-12T12:33:32.133Z,5.22
2018-06-12T12:36:03.457Z,5.17
2018-06-12T12:38:34.274Z,5.35
2018-06-12T12:41:04.962Z,5.08
2018-06-12T12:43:36.610Z,5.30
2018-06-12T12:46:07.873Z,5.80
2018-06-12T12:48:38.669Z,5.58
2018-06-12T12:51:10.142Z,6.12
2018-06-12T12:53:41.076Z,5.80
2018-06-12T12:56:12.164Z,5.78
2018-06-12T12:58:43.092Z,5.28
2018-06-12T13:01:13.798Z,5.72
2018-06-12T13:03:44.692Z,5.60
2018-06-12T13:06:15.347Z,5.37
2018-06-12T13:08:46.068Z,5.30
2018-06-12T13:11:17.929Z,5.75
2018-06-12T13:13:48.611Z,6.08
2018-06-12T13:16:19.500Z,5.85
2018-06-12T13:18:50.178Z,6.33
2018-06-12T13:21:21.024Z,6.08
2018-06-12T13:23:51.687Z,5.97
2018-06-12T13:26:22.581Z,5.90
2018-06-12T13:28:53.894Z,5.72
2018-06-12T13:31:24.511Z,6.05
2018-06-12T13:33:55.975Z,6.80
2018-06-12T13:36:27.075Z,5.67
2018-06-12T13:38:57.831Z,5.90
2018-06-12T13:41:29.012Z,5.80
2018-06-12T13:44:00.348Z,5.78
2018-06-12T13:46:31.748Z,6.33
2018-06-12T13:49:02.455Z,6.17
2018-06-12T13:51:34.665Z,6.10
2018-06-12T13:54:05.338Z,6.58
2018-06-12T13:56:36.098Z,6.30
2018-06-12T13:59:06.872Z,6.97
2018-06-12T14:01:37.727Z,6.50
2018-06-12T14:04:08.572Z,8.83
2018-06-12T14:06:39.277Z,36.08
2018-06-12T14:09:10.019Z,6.87
2018-06-12T14:11:41.004Z,6.60
2018-06-12T14:14:11.728Z,6.33
2018-06-12T14:16:42.659Z,6.25
2018-06-12T14:19:14.215Z,5.97
2018-06-12T14:21:46.168Z,6.50
2018-06-12T14:24:16.856Z,6.70
2018-06-12T14:26:47.592Z,6.17
2018-06-12T14:29:18.273Z,6.20
2018-06-12T14:31:49.244Z,5.97
2018-06-12T14:34:20.068Z,6.60
2018-06-12T14:36:50.775Z,6.83
2018-06-12T14:39:21.683Z,6.53
2018-06-12T14:41:52.758Z,7.05
2018-06-12T14:44:23.638Z,7.62
2018-06-12T14:46:54.457Z,6.80
2018-06-12T14:49:25.609Z,6.72
2018-06-12T14:51:57.347Z,6.78
2018-06-12T14:54:27.935Z,6.70
2018-06-12T14:56:58.944Z,6.42
2018-06-12T14:59:30.770Z,7.15
2018-06-12T15:02:01.376Z,7.53
2018-06-12T15:04:32.048Z,6.62
2018-06-12T15:07:03.183Z,6.80
2018-06-12T15:09:34.026Z,6.72
2018-06-12T15:12:05.132Z,6.90
2018-06-12T15:14:36.134Z,6.67
2018-06-12T15:17:07.356Z,6.90
2018-06-12T15:19:38.415Z,6.95
2018-06-12T15:22:09.542Z,6.60
2018-06-12T15:24:40.314Z,6.80
2018-06-12T15:27:10.541Z,7.25
2018-06-12T15:29:40.645Z,6.72
2018-06-12T15:32:11.558Z,6.87
2018-06-12T15:34:42.847Z,6.62
2018-06-12T15:37:13.624Z,6.60
2018-06-12T15:39:44.211Z,7.08
2018-06-12T15:42:14.986Z,6.75
2018-06-12T15:44:45.750Z,6.95
2018-06-12T15:47:16.461Z,6.83
2018-06-12T15:49:48.020Z,6.90
2018-06-12T15:52:19.542Z,6.42
2018-06-12T15:54:50.376Z,6.80
2018-06-12T15:57:22.244Z,6.78
2018-06-12T15:59:52.920Z,6.58
2018-06-12T16:02:23.663Z,6.85
2018-06-12T16:04:54.606Z,7.00
2018-06-12T16:07:25.482Z,6.50
2018-06-12T16:09:56.381Z,7.45
2018-06-12T16:12:27.383Z,6.67
2018-06-12T16:14:58.225Z,6.83
2018-06-12T16:17:28.287Z,6.60
2018-06-12T16:19:59.226Z,7.15
2018-06-12T16:22:30.234Z,7.00
2018-06-12T16:25:00.978Z,7.62
2018-06-12T16:27:32.501Z,7.17
2018-06-12T16:30:03.227Z,6.95
2018-06-12T16:32:34.371Z,7.30
2018-06-12T16:35:05.473Z,7.28
2018-06-12T16:37:36.370Z,6.92
2018-06-12T16:40:07.958Z,7.42
2018-06-12T16:42:39.410Z,7.20
2018-06-12T16:45:10.328Z,7.62
2018-06-12T16:47:40.943Z,7.65
2018-06-12T16:50:11.915Z,7.40
2018-06-12T16:52:42.730Z,7.40
2018-06-12T16:55:13.330Z,14.45
2018-06-12T16:57:44.184Z,9.15
2018-06-12T17:00:15.362Z,7.35
2018-06-12T17:02:46.539Z,7.53
2018-06-12T17:05:17.063Z,7.47
2018-06-12T17:07:48.072Z,7.72
2018-06-12T17:10:18.940Z,6.97
2018-06-12T17:12:49.854Z,7.25
2018-06-12T17:15:20.831Z,7.58
2018-06-12T17:17:51.757Z,7.60
2018-06-12T17:20:22.517Z,7.90
2018-06-12T17:22:53.403Z,7.85
2018-06-12T17:25:24.135Z,7.20
2018-06-12T17:27:55.412Z,7.80
2018-06-12T17:30:27.284Z,7.70
2018-06-12T17:32:57.918Z,8.30
2018-06-12T17:35:29.284Z,8.17
2018-06-12T17:38:00.658Z,7.47
2018-06-12T17:40:32.509Z,7.23
2018-06-12T17:43:03.894Z,8.17
2018-06-12T17:45:34.851Z,7.73
2018-06-12T17:48:07.331Z,7.13
2018-06-12T17:50:38.665Z,7.67
2018-06-12T17:53:09.767Z,7.90
2018-06-12T17:55:40.801Z,7.47
2018-06-12T17:58:11.395Z,7.27
2018-06-12T18:00:42.153Z,6.97
2018-06-12T18:03:12.800Z,6.90
2018-06-12T18:05:43.703Z,7.17
2018-06-12T18:08:14.717Z,7.50
2018-06-12T18:10:45.621Z,7.37
2018-06-12T18:13:16.627Z,7.20
2018-06-12T18:15:46.913Z,7.07
2018-06-12T18:18:17.449Z,7.00
2018-06-12T18:20:48.720Z,6.87
2018-06-12T18:23:19.644Z,11.17
2018-06-12T18:25:50.712Z,7.73
2018-06-12T18:28:22.195Z,7.33
2018-06-12T18:30:53.347Z,7.10
2018-06-12T18:33:24.076Z,7.17
2018-06-12T18:35:54.936Z,7.03
2018-06-12T18:38:25.993Z,7.07
2018-06-12T18:40:56.729Z,7.17
2018-06-12T18:43:27.880Z,6.73
2018-06-12T18:45:58.862Z,7.70
2018-06-12T18:48:30.084Z,7.17
2018-06-12T18:51:00.923Z,7.07
2018-06-12T18:53:32.948Z,6.20
2018-06-12T18:56:03.954Z,6.77
2018-06-12T18:58:34.570Z,6.53
2018-06-12T19:01:06.377Z,6.73
2018-06-12T19:03:37.193Z,6.23
2018-06-12T19:06:08.385Z,6.80
2018-06-12T19:08:39.897Z,6.60
2018-06-12T19:11:11.055Z,5.83
2018-06-12T19:13:42.056Z,6.40
2018-06-12T19:16:12.978Z,6.73
2018-06-12T19:18:42.982Z,6.67
2018-06-12T19:21:13.066Z,7.03
2018-06-12T19:23:44.039Z,6.10
2018-06-12T19:26:14.287Z,6.90
2018-06-12T19:28:45.147Z,7.20
2018-06-12T19:31:15.977Z,8.90
2018-06-12T19:33:47.214Z,7.37
2018-06-12T19:36:18.114Z,6.70
2018-06-12T19:38:49.002Z,7.77
2018-06-12T19:41:19.504Z,7.27
2018-06-12T19:43:49.381Z,7.97
2018-06-12T19:46:20.463Z,7.62
2018-06-12T19:48:50.821Z,7.62
2018-06-12T19:51:21.130Z,8.00
2018-06-12T19:53:52.117Z,7.83
2018-06-12T19:56:23.098Z,7.87
2018-06-12T19:58:54.480Z,8.00
2018-06-12T20:01:25.373Z,7.70
2018-06-12T20:03:56.456Z,7.40
2018-06-12T20:06:27.460Z,7.87
2018-06-12T20:08:59.590Z,7.63
2018-06-12T20:11:30.345Z,8.90
2018-06-12T20:14:01.612Z,7.97
2018-06-12T20:16:31.612Z,8.33
2018-06-12T20:19:02.649Z,8.57
2018-06-12T20:21:33.430Z,8.77
2018-06-12T20:24:04.137Z,8.70
2018-06-12T20:26:35.088Z,8.83
2018-06-12T20:29:06.442Z,8.40
2018-06-12T20:31:37.273Z,8.50
2018-06-12T20:34:08.690Z,8.60
2018-06-12T20:36:40.430Z,8.03
2018-06-12T20:39:12.135Z,8.50
2018-06-12T20:41:42.780Z,7.90
2018-06-12T20:44:14.415Z,7.93
2018-06-12T20:46:45.785Z,7.60
2018-06-12T20:49:17.506Z,8.43
2018-06-12T20:51:48.030Z,7.77
2018-06-12T20:54:20.178Z,7.60
2018-06-12T20:56:52.048Z,7.07
2018-06-12T20:59:24.220Z,7.00
2018-06-12T21:01:55.568Z,7.30
2018-06-12T21:04:26.300Z,7.43
2018-06-12T21:06:56.824Z,6.80
2018-06-12T21:09:28.459Z,7.70
2018-06-12T21:11:59.609Z,7.60
2018-06-12T21:14:30.315Z,6.70
2018-06-12T21:17:01.260Z,6.63
2018-06-12T21:19:32.070Z,7.00
2018-06-12T21:22:03.160Z,7.00
2018-06-12T21:24:34.383Z,7.10
2018-06-12T21:27:05.966Z,7.07
2018-06-12T21:29:36.301Z,7.40
2018-06-12T21:32:06.996Z,7.63
2018-06-12T21:34:37.779Z,6.80
2018-06-12T21:37:08.732Z,6.87
2018-06-12T21:39:40.131Z,7.17
2018-06-12T21:42:11.107Z,6.67
2018-06-12T21:44:41.959Z,6.20
2018-06-12T21:47:12.944Z,7.50
2018-06-12T21:49:43.334Z,7.37
2018-06-12T21:52:14.345Z,7.00
2018-06-12T21:54:45.411Z,7.40
2018-06-12T21:57:16.059Z,7.37
2018-06-12T21:59:47.045Z,7.63
2018-06-12T22:02:17.781Z,7.80
2018-06-12T22:04:48.907Z,7.70
2018-06-12T22:07:19.501Z,8.30
2018-06-12T22:09:49.861Z,8.17
2018-06-12T22:12:20.977Z,7.90
2018-06-12T22:14:51.961Z,8.50
2018-06-12T22:17:22.723Z,8.53
2018-06-12T22:19:53.531Z,9.00
2018-06-12T22:22:24.316Z,8.60
2018-06-12T22:24:55.099Z,8.13
2018-06-12T22:27:26.121Z,8.67
2018-06-12T22:29:56.832Z,8.67
2018-06-12T22:32:28.008Z,9.07
2018-06-12T22:34:59.036Z,8.30
2018-06-12T22:37:29.778Z,9.00
2018-06-12T22:40:00.461Z,8.23
2018-06-12T22:42:31.006Z,8.77
2018-06-12T22:45:01.803Z,8.30
2018-06-12T22:47:32.743Z,8.40
2018-06-12T22:50:03.243Z,8.13
2018-06-12T22:52:33.985Z,9.10
2018-06-12T22:55:04.816Z,8.30
2018-06-12T22:57:35.516Z,9.83
2018-06-12T23:00:06.167Z,9.30
2018-06-12T23:02:36.889Z,8.87
2018-06-12T23:05:07.869Z,9.93
2018-06-12T23:07:38.817Z,8.57
2018-06-12T23:10:10.547Z,9.47
2018-06-12T23:12:40.618Z,9.67
2018-06-12T23:15:11.446Z,9.57
2018-06-12T23:17:42.553Z,9.20
2018-06-12T23:20:23.979Z,9.50
2018-06-12T23:22:54.963Z,9.90
2018-06-12T23:25:25.691Z,9.80
2018-06-12T23:27:56.597Z,9.47
2018-06-12T23:30:27.426Z,9.43
2018-06-12T23:32:58.123Z,9.90
2018-06-12T23:35:28.652Z,9.87
2018-06-12T23:37:59.269Z,9.60
2018-06-12T23:40:30.072Z,9.53
2018-06-12T23:43:01.104Z,9.67
2018-06-12T23:45:32.155Z,9.03
2018-06-12T23:48:03.281Z,8.80
2018-06-12T23:50:34.574Z,9.40
2018-06-12T23:53:05.380Z,10.40
2018-06-12T23:55:36.174Z,10.20
2018-06-12T23:58:07.353Z,9.53
